Time;durP1;ratioP1;P1;durP2;ratioP2;P2;SDS_P1;SDS_P2;PMS_P1;PMS_P2;Temp;Humidity;BMP_temperature;BMP_pressure;BME280_temperature;BME280_humidity;BME280_pressure;Samples;Min_cycle;Max_cycle;Signal;HPM_P1;HPM_P2
2021/06/12 06:05:29;;;;;;;;;0.00;0.00;;;;;22.25;55.11;101751.59;5119819;23;47260;-77
2021/06/12 06:07:54;;;;;;;;;0.00;0.00;;;;;22.57;54.47;101799.34;4904345;29;45466;-77
2021/06/12 06:10:20;;;;;;;;;0.00;0.00;;;;;22.25;54.19;101744.56;4887829;29;45486;-76
2021/06/12 06:12:46;;;;;;;;;1.00;1.00;;;;;22.26;53.52;101740.09;4904075;29;46298;-76
2021/06/12 06:15:12;;;;;;;;;1.00;1.00;;;;;22.49;54.09;101777.75;4895692;29;45446;-77
2021/06/12 06:17:38;;;;;;;;;1.00;1.00;;;;;22.60;54.11;101771.94;4855355;29;45501;-77
2021/06/12 06:20:05;;;;;;;;;0.00;0.00;;;;;22.70;53.92;101778.47;4895911;29;45559;-77
2021/06/12 06:22:30;;;;;;;;;4.25;1.75;;;;;22.61;53.50;101748.06;4886614;29;45673;-76
2021/06/12 06:24:56;;;;;;;;;2.00;1.00;;;;;22.92;53.35;101776.53;4871214;29;45524;-77
2021/06/12 06:27:21;;;;;;;;;0.00;0.00;;;;;22.73;52.92;101751.88;4887005;29;45434;-77
2021/06/12 06:29:47;;;;;;;;;0.75;0.75;;;;;22.69;52.75;101729.19;4904105;29;45756;-77
2021/06/12 06:32:12;;;;;;;;;0.50;0.50;;;;;22.91;53.10;101738.66;4886914;29;45657;-76
2021/06/12 06:34:38;;;;;;;;;1.00;0.25;;;;;22.94;52.81;101735.81;4906133;29;45707;-75
2021/06/12 06:37:05;;;;;;;;;1.50;0.50;;;;;22.95;52.60;101740.19;4898420;29;45740;-75
2021/06/12 06:39:31;;;;;;;;;0.50;0.50;;;;;23.15;52.17;101767.38;4903910;29;45610;-75
2021/06/12 06:41:56;;;;;;;;;3.00;2.00;;;;;23.39;52.41;101809.34;4902573;29;46342;-74
2021/06/12 06:44:22;;;;;;;;;1.50;1.50;;;;;22.87;52.41;101723.91;4899655;29;45447;-75
2021/06/12 06:46:47;;;;;;;;;1.00;1.00;;;;;23.06;52.11;101744.06;4905087;29;45533;-76
2021/06/12 06:49:13;;;;;;;;;3.25;1.00;;;;;23.35;52.02;101782.19;4904371;29;45603;-75
2021/06/12 06:51:38;;;;;;;;;0.00;0.00;;;;;23.20;51.33;101751.25;4904404;29;46370;-75
2021/06/12 06:54:04;;;;;;;;;1.50;0.50;;;;;23.28;51.76;101750.84;4897901;29;45650;-75
2021/06/12 06:56:30;;;;;;;;;1.25;1.25;;;;;23.38;51.55;101767.94;4903511;29;45831;-75
2021/06/12 06:58:55;;;;;;;;;1.00;1.00;;;;;23.40;51.51;101759.91;4903970;28;45456;-75
2021/06/12 07:01:21;;;;;;;;;0.00;0.00;;;;;23.39;51.59;101758.22;4912404;28;46837;-75
2021/06/12 07:03:47;;;;;;;;;0.00;0.00;;;;;23.27;51.22;101735.94;4887193;29;45751;-75
2021/06/12 07:06:13;;;;;;;;;0.75;0.25;;;;;23.63;50.93;101798.38;4904347;29;45520;-76
2021/06/12 07:08:41;;;;;;;;;1.00;1.00;;;;;23.65;51.23;101809.75;4887810;29;45468;-75
2021/06/12 07:11:07;;;;;;;;;0.25;0.25;;;;;23.28;51.12;101743.78;4884798;29;45757;-75
2021/06/12 07:13:34;;;;;;;;;0.50;0.50;;;;;23.36;51.24;101777.75;4894451;29;45517;-75
2021/06/12 07:16:00;;;;;;;;;1.00;1.00;;;;;23.44;51.03;101772.94;4899986;29;45584;-74
2021/06/12 07:18:25;;;;;;;;;2.00;1.00;;;;;23.45;51.04;101774.63;4904234;29;45545;-76
2021/06/12 07:20:51;;;;;;;;;1.50;1.50;;;;;23.41;51.21;101794.22;4903886;29;46163;-76
2021/06/12 07:23:17;;;;;;;;;2.00;2.00;;;;;23.25;50.93;101765.94;4886679;29;45563;-76
2021/06/12 07:25:46;;;;;;;;;1.50;1.50;;;;;23.34;50.95;101784.94;4903960;29;45964;-75
2021/06/12 07:28:12;;;;;;;;;1.25;1.25;;;;;23.21;51.45;101767.03;4887603;29;45500;-75
2021/06/12 07:30:41;;;;;;;;;1.00;1.00;;;;;23.31;51.18;101780.66;4887035;29;45465;-76
2021/06/12 07:33:08;;;;;;;;;2.50;2.00;;;;;23.18;51.47;101759.28;4902904;29;45530;-75
2021/06/12 07:35:34;;;;;;;;;2.50;2.50;;;;;23.39;51.08;101795.25;4905457;29;45563;-76
2021/06/12 07:37:59;;;;;;;;;3.00;2.00;;;;;23.77;50.87;101858.53;4889733;29;45450;-75
2021/06/12 07:40:25;;;;;;;;;1.50;1.50;;;;;23.54;50.62;101828.84;4903915;29;46449;-76
2021/06/12 08:01:21;;;;;;;;;1.00;1.00;;;;;22.24;51.90;101748.09;4703379;30;45623;-82
2021/06/12 08:03:47;;;;;;;;;0.25;0.00;;;;;22.38;51.42;101763.25;4733351;29;45590;-79
2021/06/12 08:06:13;;;;;;;;;2.00;1.00;;;;;22.65;51.88;101822.78;4749590;29;45620;-77
2021/06/12 08:08:38;;;;;;;;;0.00;0.00;;;;;22.54;52.25;101810.91;4824678;29;45639;-75
2021/06/12 08:11:07;;;;;;;;;1.50;1.00;;;;;22.73;52.47;101831.19;4880475;29;45799;-80
2021/06/12 08:13:33;;;;;;;;;1.00;1.00;;;;;22.70;52.39;101818.13;4883262;29;45515;-74
2021/06/12 08:16:31;;;;;;;;;2.25;2.25;;;;;22.47;52.30;101769.03;4880530;29;45719;-84
2021/06/12 08:19:09;;;;;;;;;3.25;3.00;;;;;22.72;52.13;101812.75;4771426;29;45430;-85
